sensor_id;sensor_type;location;lat;lon;timestamp;P1;durP1;ratioP1;P2;durP2;ratioP2
10050;SDS011;5065;46.942;7.432;2024-01-16T00:01:30;5.10;;;2.97;;
10050;SDS011;5065;46.942;7.432;2024-01-16T00:03:57;4.20;;;2.80;;
10050;SDS011;5065;46.942;7.432;2024-01-16T00:06:24;3.77;;;2.80;;
10050;SDS011;5065;46.942;7.432;2024-01-16T00:08:53;3.40;;;2.27;;
10050;SDS011;5065;46.942;7.432;2024-01-16T00:11:21;4.00;;;2.97;;
10050;SDS011;5065;46.942;7.432;2024-01-16T00:13:48;3.67;;;2.93;;
10050;SDS011;5065;46.942;7.432;2024-01-16T00:16:15;5.53;;;3.00;;
10050;SDS011;5065;46.942;7.432;2024-01-16T00:18:44;2.77;;;2.50;;
10050;SDS011;5065;46.942;7.432;2024-01-16T00:21:11;7.23;;;3.17;;
10050;SDS011;5065;46.942;7.432;2024-01-16T00:23:38;3.93;;;3.03;;
10050;SDS011;5065;46.942;7.432;2024-01-16T00:26:07;2.40;;;2.20;;
10050;SDS011;5065;46.942;7.432;2024-01-16T00:28:35;4.40;;;2.47;;
10050;SDS011;5065;46.942;7.432;2024-01-16T00:31:06;4.57;;;3.17;;
10050;SDS011;5065;46.942;7.432;2024-01-16T00:33:34;2.83;;;2.20;;
10050;SDS011;5065;46.942;7.432;2024-01-16T00:36:01;8.40;;;3.03;;
10050;SDS011;5065;46.942;7.432;2024-01-16T00:38:28;5.50;;;2.97;;
10050;SDS011;5065;46.942;7.432;2024-01-16T00:40:59;3.77;;;2.97;;
10050;SDS011;5065;46.942;7.432;2024-01-16T00:43:29;3.70;;;2.70;;
10050;SDS011;5065;46.942;7.432;2024-01-16T00:45:56;7.97;;;3.10;;
10050;SDS011;5065;46.942;7.432;2024-01-16T00:48:24;4.53;;;3.73;;
10050;SDS011;5065;46.942;7.432;2024-01-16T00:50:54;4.77;;;3.77;;
10050;SDS011;5065;46.942;7.432;2024-01-16T00:53:25;4.83;;;3.20;;
10050;SDS011;5065;46.942;7.432;2024-01-16T00:55:53;4.83;;;2.93;;
10050;SDS011;5065;46.942;7.432;2024-01-16T00:58:19;3.40;;;2.50;;
10050;SDS011;5065;46.942;7.432;2024-01-16T01:00:50;6.20;;;3.60;;
10050;SDS011;5065;46.942;7.432;2024-01-16T01:03:17;4.83;;;3.27;;
10050;SDS011;5065;46.942;7.432;2024-01-16T01:05:44;4.17;;;3.07;;
10050;SDS011;5065;46.942;7.432;2024-01-16T01:08:11;5.60;;;3.43;;
10050;SDS011;5065;46.942;7.432;2024-01-16T01:10:38;4.00;;;3.43;;
10050;SDS011;5065;46.942;7.432;2024-01-16T01:13:06;4.53;;;3.10;;
10050;SDS011;5065;46.942;7.432;2024-01-16T01:15:33;5.27;;;3.00;;
10050;SDS011;5065;46.942;7.432;2024-01-16T01:18:03;5.33;;;3.30;;
10050;SDS011;5065;46.942;7.432;2024-01-16T01:20:31;4.33;;;2.47;;
10050;SDS011;5065;46.942;7.432;2024-01-16T01:22:58;5.00;;;2.80;;
10050;SDS011;5065;46.942;7.432;2024-01-16T01:25:26;4.57;;;3.20;;
10050;SDS011;5065;46.942;7.432;2024-01-16T01:27:53;5.67;;;3.47;;
10050;SDS011;5065;46.942;7.432;2024-01-16T01:30:23;5.03;;;3.03;;
10050;SDS011;5065;46.942;7.432;2024-01-16T01:32:50;3.83;;;3.07;;
10050;SDS011;5065;46.942;7.432;2024-01-16T01:35:19;3.10;;;2.80;;
10050;SDS011;5065;46.942;7.432;2024-01-16T01:37:46;8.40;;;3.53;;
10050;SDS011;5065;46.942;7.432;2024-01-16T01:40:14;8.17;;;3.53;;
10050;SDS011;5065;46.942;7.432;2024-01-16T01:42:42;5.10;;;3.37;;
10050;SDS011;5065;46.942;7.432;2024-01-16T01:45:09;4.17;;;2.53;;
10050;SDS011;5065;46.942;7.432;2024-01-16T01:47:37;5.27;;;3.00;;
10050;SDS011;5065;46.942;7.432;2024-01-16T01:50:05;5.23;;;3.33;;
10050;SDS011;5065;46.942;7.432;2024-01-16T01:52:36;4.87;;;3.13;;
10050;SDS011;5065;46.942;7.432;2024-01-16T01:55:07;7.70;;;3.47;;
10050;SDS011;5065;46.942;7.432;2024-01-16T01:57:37;5.07;;;3.10;;
10050;SDS011;5065;46.942;7.432;2024-01-16T02:00:06;7.67;;;3.90;;
10050;SDS011;5065;46.942;7.432;2024-01-16T02:02:33;5.57;;;3.03;;
10050;SDS011;5065;46.942;7.432;2024-01-16T02:05:01;4.97;;;3.27;;
10050;SDS011;5065;46.942;7.432;2024-01-16T02:07:32;7.37;;;3.73;;
10050;SDS011;5065;46.942;7.432;2024-01-16T02:10:02;5.17;;;3.03;;
10050;SDS011;5065;46.942;7.432;2024-01-16T02:12:30;7.03;;;3.93;;
10050;SDS011;5065;46.942;7.432;2024-01-16T02:15:02;4.60;;;3.40;;
10050;SDS011;5065;46.942;7.432;2024-01-16T02:17:30;10.87;;;3.33;;
10050;SDS011;5065;46.942;7.432;2024-01-16T02:19:58;6.30;;;3.17;;
10050;SDS011;5065;46.942;7.432;2024-01-16T02:22:25;5.17;;;4.10;;
10050;SDS011;5065;46.942;7.432;2024-01-16T02:24:57;5.30;;;2.83;;
10050;SDS011;5065;46.942;7.432;2024-01-16T02:27:25;3.17;;;2.60;;
10050;SDS011;5065;46.942;7.432;2024-01-16T02:29:54;5.60;;;2.97;;
10050;SDS011;5065;46.942;7.432;2024-01-16T02:32:21;5.00;;;3.33;;
10050;SDS011;5065;46.942;7.432;2024-01-16T02:34:48;5.10;;;2.90;;
10050;SDS011;5065;46.942;7.432;2024-01-16T02:37:17;5.93;;;3.40;;
10050;SDS011;5065;46.942;7.432;2024-01-16T02:39:46;6.30;;;3.43;;
10050;SDS011;5065;46.942;7.432;2024-01-16T02:42:15;11.97;;;3.30;;
10050;SDS011;5065;46.942;7.432;2024-01-16T02:44:42;4.70;;;3.43;;
10050;SDS011;5065;46.942;7.432;2024-01-16T02:47:10;4.20;;;2.90;;
10050;SDS011;5065;46.942;7.432;2024-01-16T02:49:37;4.70;;;3.07;;
10050;SDS011;5065;46.942;7.432;2024-01-16T02:52:05;4.70;;;3.17;;
10050;SDS011;5065;46.942;7.432;2024-01-16T02:54:33;3.47;;;2.70;;
10050;SDS011;5065;46.942;7.432;2024-01-16T02:57:00;4.27;;;3.03;;
10050;SDS011;5065;46.942;7.432;2024-01-16T02:59:29;6.30;;;4.00;;
10050;SDS011;5065;46.942;7.432;2024-01-16T03:01:56;4.57;;;3.43;;
10050;SDS011;5065;46.942;7.432;2024-01-16T03:04:23;6.07;;;3.53;;
10050;SDS011;5065;46.942;7.432;2024-01-16T03:06:51;5.67;;;3.03;;
10050;SDS011;5065;46.942;7.432;2024-01-16T03:09:18;4.90;;;3.70;;
10050;SDS011;5065;46.942;7.432;2024-01-16T03:11:45;3.20;;;2.83;;
10050;SDS011;5065;46.942;7.432;2024-01-16T03:14:14;8.27;;;3.73;;
10050;SDS011;5065;46.942;7.432;2024-01-16T03:16:43;4.63;;;3.37;;
10050;SDS011;5065;46.942;7.432;2024-01-16T03:19:11;7.37;;;3.30;;
10050;SDS011;5065;46.942;7.432;2024-01-16T03:21:39;6.40;;;3.77;;
10050;SDS011;5065;46.942;7.432;2024-01-16T03:24:08;5.00;;;3.37;;
10050;SDS011;5065;46.942;7.432;2024-01-16T03:26:36;7.13;;;4.07;;
10050;SDS011;5065;46.942;7.432;2024-01-16T03:29:04;7.37;;;4.30;;
10050;SDS011;5065;46.942;7.432;2024-01-16T03:31:31;7.13;;;3.40;;
10050;SDS011;5065;46.942;7.432;2024-01-16T03:34:01;7.40;;;3.80;;
10050;SDS011;5065;46.942;7.432;2024-01-16T03:36:35;8.53;;;3.53;;
10050;SDS011;5065;46.942;7.432;2024-01-16T03:39:03;8.83;;;4.43;;
10050;SDS011;5065;46.942;7.432;2024-01-16T03:41:31;6.33;;;4.50;;
10050;SDS011;5065;46.942;7.432;2024-01-16T03:43:58;8.20;;;5.03;;
10050;SDS011;5065;46.942;7.432;2024-01-16T03:46:25;5.37;;;3.80;;
10050;SDS011;5065;46.942;7.432;2024-01-16T03:48:52;6.07;;;4.37;;
10050;SDS011;5065;46.942;7.432;2024-01-16T03:51:22;11.17;;;4.43;;
10050;SDS011;5065;46.942;7.432;2024-01-16T03:53:51;9.07;;;3.97;;
10050;SDS011;5065;46.942;7.432;2024-01-16T03:56:18;9.13;;;4.43;;
10050;SDS011;5065;46.942;7.432;2024-01-16T03:58:45;9.27;;;5.27;;
10050;SDS011;5065;46.942;7.432;2024-01-16T04:01:13;8.07;;;4.80;;
10050;SDS011;5065;46.942;7.432;2024-01-16T04:03:40;9.07;;;5.03;;
10050;SDS011;5065;46.942;7.432;2024-01-16T04:06:14;7.40;;;4.73;;
10050;SDS011;5065;46.942;7.432;2024-01-16T04:08:45;6.03;;;4.70;;
10050;SDS011;5065;46.942;7.432;2024-01-16T04:11:12;8.70;;;4.93;;
10050;SDS011;5065;46.942;7.432;2024-01-16T04:13:41;7.67;;;4.53;;
10050;SDS011;5065;46.942;7.432;2024-01-16T04:16:09;7.07;;;4.57;;
10050;SDS011;5065;46.942;7.432;2024-01-16T04:18:39;8.67;;;4.63;;
10050;SDS011;5065;46.942;7.432;2024-01-16T04:21:06;9.07;;;5.50;;
10050;SDS011;5065;46.942;7.432;2024-01-16T04:23:34;12.90;;;7.10;;
10050;SDS011;5065;46.942;7.432;2024-01-16T04:26:03;10.07;;;5.80;;
10050;SDS011;5065;46.942;7.432;2024-01-16T04:28:30;5.67;;;4.17;;
10050;SDS011;5065;46.942;7.432;2024-01-16T04:30:57;7.13;;;4.77;;
10050;SDS011;5065;46.942;7.432;2024-01-16T04:33:26;10.93;;;4.83;;
10050;SDS011;5065;46.942;7.432;2024-01-16T04:35:55;9.63;;;5.03;;
10050;SDS011;5065;46.942;7.432;2024-01-16T04:38:23;7.90;;;4.23;;
10050;SDS011;5065;46.942;7.432;2024-01-16T04:40:51;9.33;;;4.93;;
10050;SDS011;5065;46.942;7.432;2024-01-16T04:43:20;8.50;;;5.67;;
10050;SDS011;5065;46.942;7.432;2024-01-16T04:45:47;7.37;;;4.00;;
10050;SDS011;5065;46.942;7.432;2024-01-16T04:48:14;5.77;;;4.13;;
10050;SDS011;5065;46.942;7.432;2024-01-16T04:50:42;8.63;;;5.07;;
10050;SDS011;5065;46.942;7.432;2024-01-16T04:53:10;10.40;;;5.03;;
10050;SDS011;5065;46.942;7.432;2024-01-16T04:55:37;10.63;;;5.00;;
10050;SDS011;5065;46.942;7.432;2024-01-16T04:58:07;9.33;;;4.27;;
10050;SDS011;5065;46.942;7.432;2024-01-16T05:00:36;8.43;;;4.37;;
10050;SDS011;5065;46.942;7.432;2024-01-16T05:03:03;9.37;;;4.93;;
10050;SDS011;5065;46.942;7.432;2024-01-16T05:05:31;11.03;;;4.73;;
10050;SDS011;5065;46.942;7.432;2024-01-16T05:08:00;8.90;;;5.13;;
10050;SDS011;5065;46.942;7.432;2024-01-16T05:10:28;9.90;;;4.77;;
10050;SDS011;5065;46.942;7.432;2024-01-16T05:12:55;9.87;;;5.03;;
10050;SDS011;5065;46.942;7.432;2024-01-16T05:15:22;7.23;;;4.83;;
10050;SDS011;5065;46.942;7.432;2024-01-16T05:17:51;7.97;;;4.73;;
10050;SDS011;5065;46.942;7.432;2024-01-16T05:20:19;14.13;;;4.93;;
10050;SDS011;5065;46.942;7.432;2024-01-16T05:22:46;6.67;;;4.50;;
10050;SDS011;5065;46.942;7.432;2024-01-16T05:25:13;7.40;;;4.70;;
10050;SDS011;5065;46.942;7.432;2024-01-16T05:27:42;8.60;;;5.53;;
10050;SDS011;5065;46.942;7.432;2024-01-16T05:30:10;9.00;;;4.43;;
10050;SDS011;5065;46.942;7.432;2024-01-16T05:32:37;7.23;;;4.37;;
10050;SDS011;5065;46.942;7.432;2024-01-16T05:35:08;5.97;;;4.30;;
10050;SDS011;5065;46.942;7.432;2024-01-16T05:37:36;6.20;;;4.20;;
10050;SDS011;5065;46.942;7.432;2024-01-16T05:40:05;13.50;;;5.10;;
10050;SDS011;5065;46.942;7.432;2024-01-16T05:42:33;6.50;;;4.00;;
10050;SDS011;5065;46.942;7.432;2024-01-16T05:45:01;8.93;;;4.40;;
10050;SDS011;5065;46.942;7.432;2024-01-16T05:47:28;9.07;;;5.10;;
10050;SDS011;5065;46.942;7.432;2024-01-16T05:49:57;8.60;;;5.40;;
10050;SDS011;5065;46.942;7.432;2024-01-16T05:52:26;6.80;;;4.13;;
10050;SDS011;5065;46.942;7.432;2024-01-16T05:54:53;8.93;;;5.67;;
10050;SDS011;5065;46.942;7.432;2024-01-16T05:57:22;9.80;;;5.23;;
10050;SDS011;5065;46.942;7.432;2024-01-16T05:59:49;8.20;;;4.77;;
10050;SDS011;5065;46.942;7.432;2024-01-16T06:02:17;11.10;;;4.57;;
10050;SDS011;5065;46.942;7.432;2024-01-16T06:04:44;9.23;;;5.10;;
10050;SDS011;5065;46.942;7.432;2024-01-16T06:07:14;10.37;;;5.70;;
10050;SDS011;5065;46.942;7.432;2024-01-16T06:09:43;5.50;;;4.37;;
10050;SDS011;5065;46.942;7.432;2024-01-16T06:12:10;8.30;;;4.80;;
10050;SDS011;5065;46.942;7.432;2024-01-16T06:14:38;9.63;;;5.77;;
10050;SDS011;5065;46.942;7.432;2024-01-16T06:17:05;7.60;;;4.67;;
10050;SDS011;5065;46.942;7.432;2024-01-16T06:19:32;7.83;;;4.60;;
10050;SDS011;5065;46.942;7.432;2024-01-16T06:21:59;6.50;;;4.53;;
10050;SDS011;5065;46.942;7.432;2024-01-16T06:24:27;6.67;;;4.37;;
10050;SDS011;5065;46.942;7.432;2024-01-16T06:27:03;6.67;;;4.13;;
10050;SDS011;5065;46.942;7.432;2024-01-16T06:29:32;9.43;;;5.73;;
10050;SDS011;5065;46.942;7.432;2024-01-16T06:31:59;9.93;;;5.53;;
10050;SDS011;5065;46.942;7.432;2024-01-16T06:34:26;6.93;;;4.30;;
10050;SDS011;5065;46.942;7.432;2024-01-16T06:36:54;8.40;;;4.33;;
10050;SDS011;5065;46.942;7.432;2024-01-16T06:39:21;8.40;;;5.30;;
10050;SDS011;5065;46.942;7.432;2024-01-16T06:41:48;9.57;;;4.50;;
10050;SDS011;5065;46.942;7.432;2024-01-16T06:44:16;8.67;;;5.13;;
10050;SDS011;5065;46.942;7.432;2024-01-16T06:46:44;7.97;;;5.13;;
10050;SDS011;5065;46.942;7.432;2024-01-16T06:49:11;9.67;;;5.17;;
10050;SDS011;5065;46.942;7.432;2024-01-16T06:51:39;8.10;;;4.70;;
10050;SDS011;5065;46.942;7.432;2024-01-16T06:54:06;8.07;;;5.13;;
10050;SDS011;5065;46.942;7.432;2024-01-16T06:56:33;8.50;;;5.53;;
10050;SDS011;5065;46.942;7.432;2024-01-16T06:59:00;6.17;;;4.27;;
10050;SDS011;5065;46.942;7.432;2024-01-16T07:01:29;8.40;;;4.73;;
10050;SDS011;5065;46.942;7.432;2024-01-16T07:03:56;11.93;;;5.17;;
10050;SDS011;5065;46.942;7.432;2024-01-16T07:06:24;9.23;;;5.70;;
10050;SDS011;5065;46.942;7.432;2024-01-16T07:08:51;8.23;;;5.13;;
10050;SDS011;5065;46.942;7.432;2024-01-16T07:11:18;10.23;;;5.40;;
10050;SDS011;5065;46.942;7.432;2024-01-16T07:13:46;10.60;;;5.10;;
10050;SDS011;5065;46.942;7.432;2024-01-16T07:16:13;7.27;;;4.80;;
10050;SDS011;5065;46.942;7.432;2024-01-16T07:18:42;6.67;;;4.60;;
10050;SDS011;5065;46.942;7.432;2024-01-16T07:21:18;7.97;;;4.50;;
10050;SDS011;5065;46.942;7.432;2024-01-16T07:23:46;7.10;;;4.40;;
10050;SDS011;5065;46.942;7.432;2024-01-16T07:26:13;10.97;;;5.67;;
10050;SDS011;5065;46.942;7.432;2024-01-16T07:28:41;7.93;;;4.53;;
10050;SDS011;5065;46.942;7.432;2024-01-16T07:31:09;9.93;;;5.30;;
10050;SDS011;5065;46.942;7.432;2024-01-16T07:33:37;7.30;;;4.33;;
10050;SDS011;5065;46.942;7.432;2024-01-16T07:36:06;9.90;;;4.97;;
10050;SDS011;5065;46.942;7.432;2024-01-16T07:38:34;9.70;;;6.00;;
10050;SDS011;5065;46.942;7.432;2024-01-16T07:41:02;7.43;;;5.07;;
10050;SDS011;5065;46.942;7.432;2024-01-16T07:43:31;9.47;;;4.93;;
10050;SDS011;5065;46.942;7.432;2024-01-16T07:45:59;8.27;;;4.90;;
10050;SDS011;5065;46.942;7.432;2024-01-16T07:48:26;10.43;;;5.60;;
10050;SDS011;5065;46.942;7.432;2024-01-16T07:50:54;8.13;;;4.80;;
10050;SDS011;5065;46.942;7.432;2024-01-16T07:53:23;9.17;;;5.57;;
10050;SDS011;5065;46.942;7.432;2024-01-16T07:55:53;9.27;;;5.00;;
10050;SDS011;5065;46.942;7.432;2024-01-16T07:58:23;6.23;;;4.63;;
10050;SDS011;5065;46.942;7.432;2024-01-16T08:00:50;8.13;;;5.30;;
10050;SDS011;5065;46.942;7.432;2024-01-16T08:03:18;7.63;;;5.33;;
10050;SDS011;5065;46.942;7.432;2024-01-16T08:05:45;7.97;;;5.13;;
10050;SDS011;5065;46.942;7.432;2024-01-16T08:08:12;7.13;;;4.50;;
10050;SDS011;5065;46.942;7.432;2024-01-16T08:10:42;8.17;;;5.27;;
10050;SDS011;5065;46.942;7.432;2024-01-16T08:13:09;8.93;;;5.23;;
10050;SDS011;5065;46.942;7.432;2024-01-16T08:15:36;10.47;;;5.70;;
10050;SDS011;5065;46.942;7.432;2024-01-16T08:18:03;7.97;;;4.83;;
10050;SDS011;5065;46.942;7.432;2024-01-16T08:20:31;9.30;;;5.47;;
10050;SDS011;5065;46.942;7.432;2024-01-16T08:22:58;9.63;;;5.17;;
10050;SDS011;5065;46.942;7.432;2024-01-16T08:25:25;6.67;;;4.77;;
10050;SDS011;5065;46.942;7.432;2024-01-16T08:27:54;9.10;;;5.60;;
10050;SDS011;5065;46.942;7.432;2024-01-16T08:30:21;10.00;;;4.63;;
10050;SDS011;5065;46.942;7.432;2024-01-16T08:32:51;10.43;;;5.63;;
10050;SDS011;5065;46.942;7.432;2024-01-16T08:35:18;7.20;;;4.77;;
10050;SDS011;5065;46.942;7.432;2024-01-16T08:37:45;7.00;;;4.77;;
10050;SDS011;5065;46.942;7.432;2024-01-16T08:40:12;6.93;;;4.90;;
10050;SDS011;5065;46.942;7.432;2024-01-16T08:42:40;7.63;;;4.73;;
10050;SDS011;5065;46.942;7.432;2024-01-16T08:45:09;10.07;;;5.43;;
10050;SDS011;5065;46.942;7.432;2024-01-16T08:47:37;9.03;;;5.67;;
10050;SDS011;5065;46.942;7.432;2024-01-16T08:50:04;7.13;;;4.80;;
10050;SDS011;5065;46.942;7.432;2024-01-16T08:52:34;8.50;;;4.63;;
10050;SDS011;5065;46.942;7.432;2024-01-16T08:55:01;10.93;;;6.17;;
10050;SDS011;5065;46.942;7.432;2024-01-16T08:57:31;9.50;;;5.90;;
10050;SDS011;5065;46.942;7.432;2024-01-16T08:59:58;7.87;;;4.70;;
10050;SDS011;5065;46.942;7.432;2024-01-16T09:02:27;10.40;;;5.67;;
10050;SDS011;5065;46.942;7.432;2024-01-16T09:04:55;10.20;;;5.53;;
10050;SDS011;5065;46.942;7.432;2024-01-16T09:07:23;7.67;;;5.57;;
10050;SDS011;5065;46.942;7.432;2024-01-16T09:09:51;16.70;;;4.80;;
10050;SDS011;5065;46.942;7.432;2024-01-16T09:12:18;8.53;;;4.90;;
10050;SDS011;5065;46.942;7.432;2024-01-16T09:14:45;8.17;;;4.83;;
10050;SDS011;5065;46.942;7.432;2024-01-16T09:17:13;8.70;;;5.03;;
10050;SDS011;5065;46.942;7.432;2024-01-16T09:19:42;7.20;;;4.33;;
10050;SDS011;5065;46.942;7.432;2024-01-16T09:22:09;6.50;;;4.43;;
10050;SDS011;5065;46.942;7.432;2024-01-16T09:24:36;8.53;;;5.37;;
10050;SDS011;5065;46.942;7.432;2024-01-16T09:27:03;10.63;;;5.67;;
10050;SDS011;5065;46.942;7.432;2024-01-16T09:29:32;9.07;;;4.70;;
10050;SDS011;5065;46.942;7.432;2024-01-16T09:31:59;6.70;;;4.40;;
10050;SDS011;5065;46.942;7.432;2024-01-16T09:34:28;12.97;;;5.33;;
10050;SDS011;5065;46.942;7.432;2024-01-16T09:36:59;9.10;;;5.30;;
10050;SDS011;5065;46.942;7.432;2024-01-16T09:39:28;9.23;;;5.27;;
10050;SDS011;5065;46.942;7.432;2024-01-16T09:41:57;8.17;;;5.20;;
10050;SDS011;5065;46.942;7.432;2024-01-16T09:44:27;8.80;;;5.37;;
10050;SDS011;5065;46.942;7.432;2024-01-16T09:46:55;8.53;;;4.60;;
10050;SDS011;5065;46.942;7.432;2024-01-16T09:49:24;10.37;;;5.37;;
10050;SDS011;5065;46.942;7.432;2024-01-16T09:51:52;8.93;;;5.30;;
10050;SDS011;5065;46.942;7.432;2024-01-16T09:54:20;8.33;;;5.60;;
10050;SDS011;5065;46.942;7.432;2024-01-16T09:56:47;10.07;;;5.93;;
10050;SDS011;5065;46.942;7.432;2024-01-16T09:59:20;9.00;;;4.73;;
10050;SDS011;5065;46.942;7.432;2024-01-16T10:01:48;8.60;;;5.10;;
10050;SDS011;5065;46.942;7.432;2024-01-16T10:04:18;12.90;;;6.77;;
10050;SDS011;5065;46.942;7.432;2024-01-16T10:06:45;12.33;;;5.83;;
10050;SDS011;5065;46.942;7.432;2024-01-16T10:09:13;9.47;;;5.20;;
10050;SDS011;5065;46.942;7.432;2024-01-16T10:11:42;6.30;;;4.57;;
10050;SDS011;5065;46.942;7.432;2024-01-16T10:14:11;10.33;;;5.13;;
10050;SDS011;5065;46.942;7.432;2024-01-16T10:16:57;8.20;;;5.57;;
10050;SDS011;5065;46.942;7.432;2024-01-16T10:19:28;10.90;;;5.33;;
10050;SDS011;5065;46.942;7.432;2024-01-16T10:22:00;10.63;;;6.63;;
10050;SDS011;5065;46.942;7.432;2024-01-16T10:24:29;8.60;;;5.20;;
10050;SDS011;5065;46.942;7.432;2024-01-16T10:27:01;10.00;;;5.53;;
10050;SDS011;5065;46.942;7.432;2024-01-16T10:29:29;6.63;;;5.20;;
10050;SDS011;5065;46.942;7.432;2024-01-16T10:31:57;7.87;;;5.17;;
10050;SDS011;5065;46.942;7.432;2024-01-16T10:34:24;9.10;;;4.60;;
10050;SDS011;5065;46.942;7.432;2024-01-16T10:36:52;8.03;;;5.03;;
10050;SDS011;5065;46.942;7.432;2024-01-16T10:39:25;11.80;;;5.77;;
10050;SDS011;5065;46.942;7.432;2024-01-16T10:41:56;7.63;;;4.67;;
10050;SDS011;5065;46.942;7.432;2024-01-16T10:44:25;17.73;;;5.83;;
10050;SDS011;5065;46.942;7.432;2024-01-16T10:47:04;8.43;;;5.80;;
10050;SDS011;5065;46.942;7.432;2024-01-16T10:49:37;8.53;;;4.43;;
10050;SDS011;5065;46.942;7.432;2024-01-16T10:52:07;7.30;;;4.90;;
10050;SDS011;5065;46.942;7.432;2024-01-16T10:54:39;10.40;;;4.97;;
10050;SDS011;5065;46.942;7.432;2024-01-16T10:57:09;7.07;;;4.20;;
10050;SDS011;5065;46.942;7.432;2024-01-16T10:59:39;7.07;;;4.77;;
10050;SDS011;5065;46.942;7.432;2024-01-16T11:02:14;16.70;;;5.27;;
10050;SDS011;5065;46.942;7.432;2024-01-16T11:04:46;8.10;;;5.33;;
10050;SDS011;5065;46.942;7.432;2024-01-16T11:07:14;8.63;;;4.73;;
10050;SDS011;5065;46.942;7.432;2024-01-16T11:09:43;6.33;;;4.63;;
10050;SDS011;5065;46.942;7.432;2024-01-16T11:12:11;8.90;;;4.80;;
10050;SDS011;5065;46.942;7.432;2024-01-16T11:14:43;11.10;;;4.97;;
10050;SDS011;5065;46.942;7.432;2024-01-16T11:17:12;10.93;;;5.47;;
10050;SDS011;5065;46.942;7.432;2024-01-16T11:19:44;8.37;;;5.57;;
10050;SDS011;5065;46.942;7.432;2024-01-16T11:22:12;7.00;;;5.07;;
10050;SDS011;5065;46.942;7.432;2024-01-16T11:24:39;10.77;;;5.63;;
10050;SDS011;5065;46.942;7.432;2024-01-16T11:27:07;8.47;;;5.40;;
10050;SDS011;5065;46.942;7.432;2024-01-16T11:29:35;9.67;;;5.97;;
10050;SDS011;5065;46.942;7.432;2024-01-16T11:32:04;9.23;;;5.57;;
10050;SDS011;5065;46.942;7.432;2024-01-16T11:37:27;9.77;;;6.10;;
10050;SDS011;5065;46.942;7.432;2024-01-16T11:42:59;7.80;;;5.07;;
10050;SDS011;5065;46.942;7.432;2024-01-16T11:46:03;8.50;;;5.43;;
10050;SDS011;5065;46.942;7.432;2024-01-16T11:48:32;7.83;;;5.47;;
10050;SDS011;5065;46.942;7.432;2024-01-16T11:51:00;7.90;;;5.37;;
10050;SDS011;5065;46.942;7.432;2024-01-16T11:53:47;7.93;;;5.10;;
10050;SDS011;5065;46.942;7.432;2024-01-16T11:56:26;10.80;;;5.13;;
10050;SDS011;5065;46.942;7.432;2024-01-16T11:59:14;8.37;;;5.03;;
10050;SDS011;5065;46.942;7.432;2024-01-16T12:01:58;9.77;;;4.93;;
10050;SDS011;5065;46.942;7.432;2024-01-16T12:04:29;8.70;;;5.50;;
10050;SDS011;5065;46.942;7.432;2024-01-16T12:06:59;8.40;;;5.07;;
10050;SDS011;5065;46.942;7.432;2024-01-16T12:09:27;6.43;;;4.43;;
10050;SDS011;5065;46.942;7.432;2024-01-16T12:11:58;6.43;;;5.33;;
10050;SDS011;5065;46.942;7.432;2024-01-16T12:14:27;6.60;;;4.03;;
10050;SDS011;5065;46.942;7.432;2024-01-16T12:17:07;5.33;;;4.20;;
10050;SDS011;5065;46.942;7.432;2024-01-16T12:19:37;5.57;;;4.13;;
10050;SDS011;5065;46.942;7.432;2024-01-16T12:22:08;8.67;;;4.83;;
10050;SDS011;5065;46.942;7.432;2024-01-16T12:24:36;7.77;;;4.10;;
10050;SDS011;5065;46.942;7.432;2024-01-16T12:27:03;6.73;;;4.57;;
10050;SDS011;5065;46.942;7.432;2024-01-16T12:29:35;7.47;;;4.83;;
10050;SDS011;5065;46.942;7.432;2024-01-16T12:32:05;7.50;;;4.60;;
10050;SDS011;5065;46.942;7.432;2024-01-16T12:34:34;6.43;;;4.80;;
10050;SDS011;5065;46.942;7.432;2024-01-16T12:37:06;5.23;;;4.03;;
10050;SDS011;5065;46.942;7.432;2024-01-16T12:39:33;4.63;;;3.70;;
10050;SDS011;5065;46.942;7.432;2024-01-16T12:42:01;5.70;;;3.77;;
10050;SDS011;5065;46.942;7.432;2024-01-16T12:44:29;4.83;;;3.40;;
10050;SDS011;5065;46.942;7.432;2024-01-16T12:46:57;6.97;;;3.63;;
10050;SDS011;5065;46.942;7.432;2024-01-16T12:49:27;6.17;;;3.67;;
10050;SDS011;5065;46.942;7.432;2024-01-16T12:54:57;4.33;;;3.67;;
10050;SDS011;5065;46.942;7.432;2024-01-16T12:57:25;8.73;;;3.63;;
10050;SDS011;5065;46.942;7.432;2024-01-16T12:59:53;6.17;;;4.40;;
10050;SDS011;5065;46.942;7.432;2024-01-16T13:02:22;5.53;;;3.70;;
10050;SDS011;5065;46.942;7.432;2024-01-16T13:04:58;7.27;;;4.07;;
10050;SDS011;5065;46.942;7.432;2024-01-16T13:07:29;8.30;;;4.80;;
10050;SDS011;5065;46.942;7.432;2024-01-16T13:10:08;8.30;;;4.17;;
10050;SDS011;5065;46.942;7.432;2024-01-16T13:12:37;5.77;;;4.23;;
10050;SDS011;5065;46.942;7.432;2024-01-16T13:15:04;6.83;;;4.60;;
10050;SDS011;5065;46.942;7.432;2024-01-16T13:17:32;4.70;;;3.73;;
10050;SDS011;5065;46.942;7.432;2024-01-16T13:20:01;6.23;;;4.17;;
10050;SDS011;5065;46.942;7.432;2024-01-16T13:22:31;6.57;;;4.33;;
10050;SDS011;5065;46.942;7.432;2024-01-16T13:24:58;7.03;;;4.63;;
10050;SDS011;5065;46.942;7.432;2024-01-16T13:27:25;6.07;;;3.87;;
10050;SDS011;5065;46.942;7.432;2024-01-16T13:29:55;6.17;;;4.83;;
10050;SDS011;5065;46.942;7.432;2024-01-16T13:32:22;11.03;;;4.30;;
10050;SDS011;5065;46.942;7.432;2024-01-16T13:34:49;6.93;;;4.20;;
10050;SDS011;5065;46.942;7.432;2024-01-16T13:37:18;4.30;;;3.60;;
10050;SDS011;5065;46.942;7.432;2024-01-16T13:39:49;9.33;;;4.27;;
10050;SDS011;5065;46.942;7.432;2024-01-16T13:42:17;4.53;;;3.80;;
10050;SDS011;5065;46.942;7.432;2024-01-16T13:44:45;4.70;;;3.50;;
10050;SDS011;5065;46.942;7.432;2024-01-16T13:47:13;6.53;;;4.27;;
10050;SDS011;5065;46.942;7.432;2024-01-16T13:49:43;5.83;;;4.17;;
10050;SDS011;5065;46.942;7.432;2024-01-16T13:52:11;6.97;;;4.17;;
10050;SDS011;5065;46.942;7.432;2024-01-16T13:54:38;6.43;;;4.33;;
10050;SDS011;5065;46.942;7.432;2024-01-16T13:57:08;6.60;;;3.93;;
10050;SDS011;5065;46.942;7.432;2024-01-16T13:59:35;5.27;;;4.10;;
10050;SDS011;5065;46.942;7.432;2024-01-16T14:02:03;6.00;;;4.23;;
10050;SDS011;5065;46.942;7.432;2024-01-16T14:04:31;4.97;;;3.97;;
10050;SDS011;5065;46.942;7.432;2024-01-16T14:06:59;6.10;;;4.00;;
10050;SDS011;5065;46.942;7.432;2024-01-16T14:09:29;5.83;;;3.83;;
10050;SDS011;5065;46.942;7.432;2024-01-16T14:12:01;7.40;;;4.70;;
10050;SDS011;5065;46.942;7.432;2024-01-16T14:14:29;6.40;;;4.30;;
10050;SDS011;5065;46.942;7.432;2024-01-16T14:16:57;4.73;;;4.20;;
10050;SDS011;5065;46.942;7.432;2024-01-16T14:19:24;4.30;;;3.70;;
10050;SDS011;5065;46.942;7.432;2024-01-16T14:21:52;5.70;;;4.30;;
10050;SDS011;5065;46.942;7.432;2024-01-16T14:24:19;9.63;;;4.77;;
10050;SDS011;5065;46.942;7.432;2024-01-16T14:26:46;7.30;;;3.90;;
10050;SDS011;5065;46.942;7.432;2024-01-16T14:29:14;5.97;;;4.63;;
10050;SDS011;5065;46.942;7.432;2024-01-16T14:31:42;5.50;;;4.23;;
10050;SDS011;5065;46.942;7.432;2024-01-16T14:34:13;7.00;;;4.17;;
10050;SDS011;5065;46.942;7.432;2024-01-16T14:36:41;9.85;;;6.00;;
10050;SDS011;5065;46.942;7.432;2024-01-16T14:39:08;7.03;;;4.83;;
10050;SDS011;5065;46.942;7.432;2024-01-16T14:41:38;5.93;;;4.03;;
10050;SDS011;5065;46.942;7.432;2024-01-16T14:44:07;4.53;;;4.13;;
10050;SDS011;5065;46.942;7.432;2024-01-16T14:46:36;6.00;;;4.03;;
10050;SDS011;5065;46.942;7.432;2024-01-16T14:49:04;5.47;;;4.03;;
10050;SDS011;5065;46.942;7.432;2024-01-16T14:51:32;5.40;;;4.13;;
10050;SDS011;5065;46.942;7.432;2024-01-16T14:54:00;6.87;;;4.53;;
10050;SDS011;5065;46.942;7.432;2024-01-16T14:56:27;7.13;;;4.83;;
10050;SDS011;5065;46.942;7.432;2024-01-16T14:58:55;6.97;;;4.47;;
10050;SDS011;5065;46.942;7.432;2024-01-16T15:01:22;5.50;;;4.40;;
10050;SDS011;5065;46.942;7.432;2024-01-16T15:03:49;4.47;;;3.23;;
10050;SDS011;5065;46.942;7.432;2024-01-16T15:06:18;9.57;;;4.97;;
10050;SDS011;5065;46.942;7.432;2024-01-16T15:08:45;5.47;;;4.90;;
10050;SDS011;5065;46.942;7.432;2024-01-16T15:11:13;9.23;;;4.23;;
10050;SDS011;5065;46.942;7.432;2024-01-16T15:13:42;8.77;;;4.87;;
10050;SDS011;5065;46.942;7.432;2024-01-16T15:16:10;7.07;;;4.47;;
10050;SDS011;5065;46.942;7.432;2024-01-16T15:18:37;7.73;;;4.13;;